Etusivu
METAR-TAF:

METAR-TAF

Lentoasemat :

Crestview, Florida, Yhdysvallat

Leveyspiiri: 30-46-20N, Pituuspiiri: 086-31-12W, korkeus merenpinnasta: 65 m

Tämänhetkinen sää

Tämä raportti tehtiin 38 minuuttia sitten, kello 13.53 UTC
Tuuli 5 kn eri suunnista
Lämpötila 19°C
Kosteus 94%
Ilmanpaine 1015 hPa
Näkyvyys: 16.1 km
Hajanaisia pilviä 200 ft:n korkeudessa

METAR: KCEW 251353Z AUTO VRB05KT 10SM SCT002 19/18 A2996 RMK AO2 SLP142 T01940183 $

Aika: 09:31 (14:31 UTC)


TAF: puuttuu

Säähavainnot ja -ennusteet yli 4000 lentoasemalta (METAR- ja TAF-raportit).

Käytössä olevat sääasemat on merkitty karttaan keltaisilla ja punaisilla pisteillä.

Aseta hiiri pisteen päälle nähdäksesi sääaseman nimen.

Klikkaa sitten nähdäksesi säähavainnot ja -ennusteet.

Kartan vaihtaminen: klikkaa mustalla rastilla varustettuja vihreitä pisteitä, niin voit zoomata sisään; viivalla varustettua vihreää pistettä, niin voit zoomata ulos tai vihreitä nuolia, niin pääset viereisille kartoille.


METAR-TAF: